03:43
Airports
Links
Donate
Help keep this website running!
PayPal
Bitcoin
METAR
LEBL 130330Z 32012KT CAVOK 04/00 Q1023 NOSIG
Current Weather Conditions at LEBL
VFR 03:30:00 13-12-17
Altimeter:30.21 hg
Temp:4.0°c 39°f
Dew point:0.0°c 32°f
Wind:12 knots, 13.8 mph, 6 m/s, from 320°
Visibility:6.21 statute miles
(CAVOK)
No significant weather changes expected within 2 hours.
Past METAR reports
VFR 03:00:00 13-12-17
Altimeter:30.21 hg
Temp:4.0°c 39°f
Dew point:1.0°c 34°f
Wind:11 knots, 12.7 mph, 6 m/s, from 330°
Visibility:6.21 statute miles
(CAVOK)
No significant weather changes expected within 2 hours.
LEBL 130300Z 33011KT CAVOK 04/01 Q1023 NOSIG
VFR 02:30:00 13-12-17
Altimeter:30.21 hg
Temp:4.0°c 39°f
Dew point:1.0°c 34°f
Wind:10 knots, 11.5 mph, 5 m/s, from 330°
Visibility:6.21 statute miles
(CAVOK)
No significant weather changes expected within 2 hours.
LEBL 130230Z 33010KT CAVOK 04/01 Q1023 NOSIG
VFR 02:00:00 13-12-17
Altimeter:30.21 hg
Temp:4.0°c 39°f
Dew point:1.0°c 34°f
Wind:11 knots, 12.7 mph, 6 m/s, from 340°
Visibility:6.21 statute miles
(CAVOK)
No significant weather changes expected within 2 hours.
LEBL 130200Z 34011KT CAVOK 04/01 Q1023 NOSIG
VFR 01:30:00 13-12-17
Altimeter:30.21 hg
Temp:4.0°c 39°f
Dew point:1.0°c 34°f
Wind:11 knots, 12.7 mph, 6 m/s, from 330°
Visibility:6.21 statute miles
(CAVOK)
No significant weather changes expected within 2 hours.
LEBL 130130Z 33011KT CAVOK 04/01 Q1023 NOSIG
VFR 01:00:00 13-12-17
Altimeter:30.21 hg
Temp:4.0°c 39°f
Dew point:1.0°c 34°f
Wind:10 knots, 11.5 mph, 5 m/s, from 330°
Visibility:6.21 statute miles
(CAVOK)
No significant weather changes expected within 2 hours.
LEBL 130100Z 33010KT CAVOK 04/01 Q1023 NOSIG
VFR 00:30:00 13-12-17
Altimeter:30.18 hg
Temp:5.0°c 41°f
Dew point:1.0°c 34°f
Wind:10 knots, 11.5 mph, 5 m/s, from 330°
Visibility:6.21 statute miles
(CAVOK)
No significant weather changes expected within 2 hours.
LEBL 130030Z 33010KT CAVOK 05/01 Q1022 NOSIG
TAF
TAF LEBL 122300Z 1300/1324 33010KT 9999 FEW025 TX14/1312Z TN03/1306Z PROB40 TEMPO 1300/1309 33015G25KT BECMG 1310/1312 25013KT
Forecast at LEBL
00:00 13-12-17 to 10:00 13-12-17
Wind:10 Knots from 330°
Visibility:6.21 statute miles
2500FEW A few
TEMPO 00:00 13-12-17 to 09:00 13-12-17
40%
Wind:15 Knots from 330°
BECMG 10:00 13-12-17 to 00:00 14-12-17
Wind:13 Knots from 250°
Visibility:6.21 statute miles
2500FEW A few